createdAt,value
2022-12-17T00:00:01.748Z,33.20
2022-12-17T00:01:03.916Z,36.22
2022-12-17T00:02:05.526Z,35.15
2022-12-17T00:03:10.087Z,31.88
2022-12-17T00:04:11.782Z,35.90
2022-12-17T00:05:13.415Z,39.58
2022-12-17T00:06:14.924Z,34.47
2022-12-17T00:07:16.532Z,33.88
2022-12-17T00:08:19.369Z,33.72
2022-12-17T00:09:20.926Z,33.83
2022-12-17T00:10:22.407Z,32.90
2022-12-17T00:11:24.017Z,34.10
2022-12-17T00:12:25.587Z,30.55
2022-12-17T00:13:27.111Z,31.20
2022-12-17T00:14:28.633Z,28.50
2022-12-17T00:15:30.169Z,32.22
2022-12-17T00:16:31.727Z,31.90
2022-12-17T00:17:33.368Z,35.40
2022-12-17T00:18:34.920Z,33.80
2022-12-17T00:19:36.430Z,34.83
2022-12-17T00:20:37.925Z,37.67
2022-12-17T00:21:39.475Z,35.53
2022-12-17T00:22:41.013Z,33.35
2022-12-17T00:23:44.162Z,36.33
2022-12-17T00:24:45.680Z,32.25
2022-12-17T00:25:50.567Z,34.95
2022-12-17T00:26:52.106Z,33.92
2022-12-17T00:27:53.625Z,31.73
2022-12-17T00:28:55.194Z,33.28
2022-12-17T00:29:57.532Z,33.40
2022-12-17T00:30:59.095Z,33.63
2022-12-17T00:32:00.900Z,32.05
2022-12-17T00:33:02.405Z,29.65
2022-12-17T00:34:03.921Z,27.02
2022-12-17T00:35:06.368Z,30.55
2022-12-17T00:36:08.380Z,31.90
2022-12-17T00:37:09.882Z,35.72
2022-12-17T00:38:15.154Z,33.72
2022-12-17T00:39:17.969Z,32.58
2022-12-17T00:40:19.578Z,37.03
2022-12-17T00:41:21.193Z,29.83
2022-12-17T00:42:22.823Z,31.25
2022-12-17T00:43:24.342Z,31.58
2022-12-17T00:44:25.871Z,33.95
2022-12-17T00:45:27.399Z,34.72
2022-12-17T00:46:28.979Z,33.30
2022-12-17T00:47:30.530Z,36.80
2022-12-17T00:48:32.050Z,35.95
2022-12-17T00:49:33.574Z,35.50
2022-12-17T00:50:35.134Z,36.17
2022-12-17T00:51:36.638Z,40.08
2022-12-17T00:52:38.157Z,34.45
2022-12-17T00:53:39.808Z,35.00
2022-12-17T00:54:42.720Z,35.75
2022-12-17T00:55:44.301Z,33.97
2022-12-17T00:56:45.893Z,32.28
2022-12-17T00:57:53.077Z,29.60
2022-12-17T00:58:54.635Z,32.45
2022-12-17T00:59:56.121Z,31.55
2022-12-17T01:00:58.600Z,29.92
2022-12-17T01:02:00.273Z,29.83
2022-12-17T01:03:06.951Z,31.08
2022-12-17T01:04:08.512Z,29.98
2022-12-17T01:05:11.019Z,33.80
2022-12-17T01:06:13.610Z,33.45
2022-12-17T01:07:15.185Z,30.65
2022-12-17T01:08:16.741Z,27.23
2022-12-17T01:09:18.502Z,29.50
2022-12-17T01:10:21.366Z,27.00
2022-12-17T01:11:22.904Z,30.35
2022-12-17T01:12:24.397Z,27.45
2022-12-17T01:13:25.975Z,29.20
2022-12-17T01:14:27.743Z,31.80
2022-12-17T01:15:29.298Z,29.60
2022-12-17T01:16:30.857Z,33.47
2022-12-17T01:17:32.431Z,35.03
2022-12-17T01:18:33.962Z,34.08
2022-12-17T01:19:35.464Z,36.47
2022-12-17T01:20:37.046Z,33.47
2022-12-17T01:21:39.154Z,36.63
2022-12-17T01:22:56.457Z,36.47
2022-12-17T01:23:58.124Z,37.45
2022-12-17T01:24:59.645Z,34.17
2022-12-17T01:26:02.581Z,37.00
2022-12-17T01:27:04.224Z,38.05
2022-12-17T01:28:05.857Z,38.58
2022-12-17T01:29:07.386Z,40.83
2022-12-17T01:30:09.401Z,39.85
2022-12-17T01:31:12.037Z,39.53
2022-12-17T01:32:13.618Z,44.08
2022-12-17T01:33:15.186Z,37.42
2022-12-17T01:34:16.786Z,45.50
2022-12-17T01:35:18.469Z,38.05
2022-12-17T01:36:20.120Z,39.53
2022-12-17T01:37:21.649Z,42.25
2022-12-17T01:38:23.148Z,40.45
2022-12-17T01:39:24.701Z,41.75
2022-12-17T01:40:26.227Z,42.78
2022-12-17T01:41:29.768Z,40.03
2022-12-17T01:42:37.824Z,45.00
2022-12-17T01:43:39.634Z,40.90
2022-12-17T01:44:47.982Z,44.63
2022-12-17T01:45:49.765Z,41.53
2022-12-17T01:46:51.763Z,40.08
2022-12-17T01:47:58.924Z,38.88
2022-12-17T01:49:00.648Z,39.65
2022-12-17T01:50:02.186Z,41.78
2022-12-17T01:51:04.633Z,42.03
2022-12-17T01:52:06.795Z,39.58
2022-12-17T01:53:09.459Z,34.55
2022-12-17T01:54:11.303Z,37.25
2022-12-17T01:55:12.809Z,38.60
2022-12-17T01:56:14.712Z,39.55
2022-12-17T01:57:17.615Z,40.65
2022-12-17T01:58:19.421Z,35.63
2022-12-17T01:59:29.399Z,34.95
2022-12-17T02:00:31.135Z,43.38
2022-12-17T02:01:32.771Z,40.33
2022-12-17T02:02:34.486Z,37.78
2022-12-17T02:03:36.505Z,39.65
2022-12-17T02:04:39.105Z,41.30
2022-12-17T02:05:48.283Z,45.80
2022-12-17T02:06:59.394Z,43.38
2022-12-17T02:08:10.625Z,40.25
2022-12-17T02:09:20.756Z,43.22
2022-12-17T02:10:25.536Z,42.83
2022-12-17T02:11:39.547Z,41.85
2022-12-17T02:12:47.208Z,36.20
2022-12-17T02:13:54.962Z,41.08
2022-12-17T02:15:05.514Z,41.63
2022-12-17T02:16:12.221Z,38.72
2022-12-17T02:17:20.488Z,38.53
2022-12-17T02:18:27.755Z,41.83
2022-12-17T02:19:42.161Z,41.35
2022-12-17T02:20:48.003Z,39.95
2022-12-17T02:21:57.350Z,40.67
2022-12-17T02:23:09.006Z,39.13
2022-12-17T02:24:14.915Z,40.28
2022-12-17T02:25:23.053Z,40.80
2022-12-17T02:26:36.562Z,40.70
2022-12-17T02:27:50.461Z,38.90
2022-12-17T02:28:53.071Z,35.90
2022-12-17T02:29:57.235Z,37.30
2022-12-17T02:30:58.874Z,37.65
2022-12-17T02:32:02.550Z,35.83
2022-12-17T02:33:04.878Z,37.65
2022-12-17T02:34:06.416Z,35.88
2022-12-17T02:35:14.611Z,32.65
2022-12-17T02:36:16.158Z,35.83
2022-12-17T02:37:17.666Z,38.55
2022-12-17T02:38:21.708Z,38.05
2022-12-17T02:39:23.402Z,31.63
2022-12-17T02:40:25.387Z,34.83
2022-12-17T02:41:29.582Z,31.70
2022-12-17T02:42:33.081Z,35.85
2022-12-17T02:43:35.550Z,35.10
2022-12-17T02:44:39.289Z,30.98
2022-12-17T02:45:41.063Z,32.72
2022-12-17T02:46:43.551Z,33.22
2022-12-17T02:47:45.445Z,31.77
2022-12-17T02:48:47.202Z,31.48
2022-12-17T02:49:48.865Z,33.33
2022-12-17T02:50:50.670Z,32.13
2022-12-17T02:51:54.447Z,35.83
2022-12-17T02:52:59.566Z,34.35
2022-12-17T02:54:03.804Z,34.28
2022-12-17T02:55:06.853Z,32.65
2022-12-17T02:56:08.606Z,35.80
2022-12-17T02:57:10.121Z,35.33
2022-12-17T02:58:12.990Z,31.52
2022-12-17T02:59:14.762Z,28.92
2022-12-17T03:00:16.603Z,30.65
2022-12-17T03:01:18.258Z,35.63
2022-12-17T03:02:19.975Z,32.72
2022-12-17T03:03:21.786Z,35.47
2022-12-17T03:04:23.359Z,35.22
2022-12-17T03:06:46.323Z,31.58
2022-12-17T03:07:47.827Z,29.67
2022-12-17T03:08:49.488Z,32.90
2022-12-17T03:09:51.041Z,32.33
2022-12-17T03:10:52.624Z,31.55
2022-12-17T03:11:54.123Z,36.28
2022-12-17T03:12:55.598Z,33.97
2022-12-17T03:13:59.687Z,28.85
2022-12-17T03:16:57.913Z,30.83
2022-12-17T03:17:59.450Z,31.67
2022-12-17T03:19:01.541Z,31.23
2022-12-17T03:20:03.888Z,35.05
2022-12-17T03:21:05.560Z,32.42
2022-12-17T03:22:07.090Z,33.42
2022-12-17T03:23:10.963Z,34.08
2022-12-17T03:24:12.480Z,32.70
2022-12-17T03:25:14.910Z,32.90
2022-12-17T03:26:16.512Z,35.92
2022-12-17T03:27:18.074Z,33.80
2022-12-17T03:28:19.623Z,31.88
2022-12-17T03:29:22.485Z,31.95
2022-12-17T03:30:24.153Z,29.35
2022-12-17T03:31:25.861Z,30.55
2022-12-17T03:32:27.405Z,31.02
2022-12-17T03:33:28.911Z,30.73
2022-12-17T03:34:30.413Z,33.88
2022-12-17T03:35:31.983Z,29.80
2022-12-17T03:36:33.510Z,26.67
2022-12-17T03:37:35.048Z,27.80
2022-12-17T03:38:39.741Z,29.02
2022-12-17T03:39:41.267Z,28.98
2022-12-17T03:40:42.793Z,28.13
2022-12-17T03:41:45.075Z,35.22
2022-12-17T03:42:46.584Z,27.73
2022-12-17T03:43:48.099Z,31.88
2022-12-17T03:44:50.947Z,30.92
2022-12-17T03:45:53.343Z,28.33
2022-12-17T03:46:54.946Z,33.90
2022-12-17T03:48:04.925Z,30.70
2022-12-17T03:49:06.755Z,28.63
2022-12-17T03:50:08.641Z,32.80
2022-12-17T03:51:10.132Z,31.73
2022-12-17T03:52:11.632Z,31.20
2022-12-17T03:53:13.238Z,32.90
2022-12-17T03:54:14.727Z,31.10
2022-12-17T03:55:16.303Z,29.73
2022-12-17T03:56:17.833Z,30.65
2022-12-17T03:57:19.386Z,31.40
2022-12-17T03:58:20.905Z,28.63
2022-12-17T03:59:22.433Z,28.13
2022-12-17T04:00:25.273Z,29.77
2022-12-17T04:01:26.848Z,27.27
2022-12-17T04:02:28.565Z,24.27
2022-12-17T04:03:30.255Z,26.27
2022-12-17T04:04:31.860Z,27.60
2022-12-17T04:05:33.436Z,27.50
2022-12-17T04:06:34.970Z,29.55
2022-12-17T04:07:36.526Z,28.65
2022-12-17T04:08:38.051Z,29.23
2022-12-17T04:09:39.557Z,28.55
2022-12-17T04:10:41.358Z,30.88
2022-12-17T04:11:42.916Z,26.80
2022-12-17T04:12:44.443Z,30.60
2022-12-17T04:13:46.285Z,25.58
2022-12-17T04:14:48.052Z,29.17
2022-12-17T04:15:50.967Z,25.63
2022-12-17T04:16:52.492Z,24.70
2022-12-17T04:17:54.152Z,28.67
2022-12-17T04:18:55.726Z,31.05
2022-12-17T04:19:57.272Z,30.73
2022-12-17T04:21:14.143Z,28.23
2022-12-17T04:22:15.715Z,29.75
2022-12-17T04:23:17.234Z,29.88
2022-12-17T04:24:18.770Z,29.55
2022-12-17T04:25:20.365Z,31.85
2022-12-17T04:26:21.943Z,34.95
2022-12-17T04:27:23.496Z,37.65
2022-12-17T04:28:25.021Z,34.40
2022-12-17T04:29:26.562Z,34.95
2022-12-17T04:30:28.069Z,39.20
2022-12-17T04:31:36.065Z,37.80
2022-12-17T04:32:37.640Z,22.23
2022-12-17T04:33:39.473Z,21.15
2022-12-17T04:34:41.173Z,27.15
2022-12-17T04:35:44.351Z,25.65
2022-12-17T04:36:45.847Z,29.98
2022-12-17T04:37:47.430Z,26.63
2022-12-17T04:38:48.959Z,26.55
2022-12-17T04:39:50.546Z,29.92
2022-12-17T04:40:52.072Z,36.85
2022-12-17T04:42:18.335Z,33.35
2022-12-17T04:43:19.848Z,37.45
2022-12-17T04:44:21.341Z,37.15
2022-12-17T04:45:22.846Z,37.35
2022-12-17T04:46:24.423Z,38.60
2022-12-17T04:47:27.381Z,40.53
2022-12-17T04:48:28.903Z,40.55
2022-12-17T04:49:30.445Z,40.47
2022-12-17T04:50:31.958Z,41.75
2022-12-17T04:51:33.481Z,39.33
2022-12-17T04:52:34.998Z,39.40
2022-12-17T04:53:36.840Z,39.80
2022-12-17T04:54:38.599Z,42.00
2022-12-17T04:55:40.099Z,42.80
2022-12-17T04:56:41.652Z,39.60
2022-12-17T04:57:43.174Z,40.08
2022-12-17T04:58:44.673Z,41.78
2022-12-17T04:59:46.143Z,39.83
2022-12-17T05:00:47.680Z,42.80
2022-12-17T05:01:49.328Z,41.10
2022-12-17T05:02:52.396Z,44.58
2022-12-17T05:03:54.065Z,43.22
2022-12-17T05:04:55.644Z,40.55
2022-12-17T05:05:57.458Z,43.72
2022-12-17T05:06:59.036Z,46.17
2022-12-17T05:08:00.617Z,41.60
2022-12-17T05:09:02.375Z,41.40
2022-12-17T05:10:04.389Z,47.47
2022-12-17T05:11:06.004Z,44.28
2022-12-17T05:12:07.530Z,45.35
2022-12-17T05:13:09.910Z,49.35
2022-12-17T05:14:11.422Z,46.88
2022-12-17T05:15:12.961Z,48.25
2022-12-17T05:16:14.597Z,47.67
2022-12-17T05:17:16.237Z,44.25
2022-12-17T05:18:19.122Z,49.33
2022-12-17T05:19:20.653Z,42.42
2022-12-17T05:20:22.171Z,45.38
2022-12-17T05:21:23.668Z,48.63
2022-12-17T05:22:25.195Z,48.40
2022-12-17T05:23:26.670Z,43.17
2022-12-17T05:24:28.184Z,48.67
2022-12-17T05:25:29.749Z,47.78
2022-12-17T05:26:31.296Z,45.15
2022-12-17T05:27:32.813Z,49.70
2022-12-17T05:28:34.357Z,45.70
2022-12-17T05:29:35.839Z,50.13
2022-12-17T05:30:37.344Z,52.63
2022-12-17T05:31:38.932Z,52.55
2022-12-17T05:32:40.503Z,52.17
2022-12-17T05:33:43.377Z,49.70
2022-12-17T05:34:44.878Z,50.67
2022-12-17T05:35:46.672Z,51.72
2022-12-17T05:36:48.196Z,54.60
2022-12-17T05:37:49.705Z,49.25
2022-12-17T05:38:54.043Z,50.45
2022-12-17T05:39:55.540Z,49.53
2022-12-17T05:41:12.530Z,50.22
2022-12-17T05:42:14.044Z,44.75
2022-12-17T05:43:15.529Z,48.25
2022-12-17T05:44:17.034Z,48.85
2022-12-17T05:45:18.543Z,50.30
2022-12-17T05:46:20.130Z,45.38
2022-12-17T05:47:21.644Z,51.30
2022-12-17T05:48:23.175Z,47.70
2022-12-17T05:49:26.040Z,48.42
2022-12-17T05:50:29.213Z,50.72
2022-12-17T05:51:33.514Z,53.35
2022-12-17T05:52:38.626Z,54.30
2022-12-17T05:53:40.142Z,53.17
2022-12-17T05:54:41.728Z,64.00
2022-12-17T05:55:43.267Z,51.30
2022-12-17T05:56:44.865Z,61.28
2022-12-17T05:57:49.413Z,57.35
2022-12-17T05:58:53.242Z,61.50
2022-12-17T05:59:54.741Z,59.60
2022-12-17T06:00:56.654Z,68.38
2022-12-17T06:01:58.220Z,66.68
2022-12-17T06:03:00.771Z,70.20
2022-12-17T06:04:02.500Z,69.82
2022-12-17T06:05:06.741Z,70.55
2022-12-17T06:06:08.229Z,69.30
2022-12-17T06:07:09.759Z,67.68
2022-12-17T06:08:11.297Z,67.40
2022-12-17T06:09:13.292Z,74.05
2022-12-17T06:10:14.818Z,72.60
2022-12-17T06:11:16.328Z,68.72
2022-12-17T06:12:17.861Z,68.15
2022-12-17T06:13:19.360Z,64.13
2022-12-17T06:14:20.907Z,66.90
2022-12-17T06:15:22.422Z,61.45
2022-12-17T06:16:24.003Z,62.15
2022-12-17T06:17:25.592Z,65.00
2022-12-17T06:18:27.108Z,63.50
2022-12-17T06:19:28.665Z,55.22
2022-12-17T06:20:43.880Z,59.85
2022-12-17T06:21:45.380Z,60.55
2022-12-17T06:22:46.894Z,56.88
2022-12-17T06:23:48.399Z,60.45
2022-12-17T06:24:49.960Z,59.17
2022-12-17T06:25:52.661Z,65.63
2022-12-17T06:26:54.191Z,60.95
2022-12-17T06:27:59.473Z,60.80
2022-12-17T06:29:00.998Z,53.60
2022-12-17T06:30:02.560Z,61.15
2022-12-17T06:31:04.123Z,62.90
2022-12-17T06:32:05.684Z,57.60
2022-12-17T06:33:09.264Z,57.17
2022-12-17T06:34:10.805Z,62.75
2022-12-17T06:35:12.311Z,61.47
2022-12-17T06:36:21.667Z,62.70
2022-12-17T06:37:24.208Z,55.05
2022-12-17T06:38:25.753Z,61.80
2022-12-17T06:39:27.295Z,57.95
2022-12-17T06:40:28.793Z,58.30
2022-12-17T06:41:30.304Z,57.83
2022-12-17T06:42:31.896Z,58.05
2022-12-17T06:43:33.786Z,59.85
2022-12-17T06:44:35.572Z,54.85
2022-12-17T06:45:37.080Z,58.05
2022-12-17T06:46:38.627Z,52.72
2022-12-17T06:47:40.134Z,56.67
2022-12-17T06:48:50.665Z,56.03
2022-12-17T06:49:56.598Z,55.25
2022-12-17T06:51:01.080Z,55.28
2022-12-17T06:52:04.098Z,60.05
2022-12-17T06:53:07.224Z,56.65
2022-12-17T06:54:08.768Z,60.90
2022-12-17T06:55:10.676Z,54.90
2022-12-17T06:56:12.210Z,56.60
2022-12-17T06:57:13.745Z,58.60
2022-12-17T06:58:15.246Z,58.28
2022-12-17T06:59:16.762Z,55.35
2022-12-17T07:00:18.329Z,52.20
2022-12-17T07:01:20.048Z,47.85
2022-12-17T07:02:21.751Z,51.13
2022-12-17T07:03:23.480Z,47.40
2022-12-17T07:04:25.057Z,50.72
2022-12-17T07:05:45.016Z,49.50
2022-12-17T07:06:46.549Z,48.42
2022-12-17T07:07:49.403Z,47.33
2022-12-17T07:08:50.906Z,52.25
2022-12-17T07:09:52.422Z,55.13
2022-12-17T07:10:53.958Z,51.85
2022-12-17T07:11:55.661Z,58.35
2022-12-17T07:13:04.236Z,60.15
2022-12-17T07:14:05.774Z,57.28
2022-12-17T07:15:08.218Z,56.13
2022-12-17T07:16:09.739Z,52.08
2022-12-17T07:17:11.889Z,53.15
2022-12-17T07:18:13.496Z,51.78
2022-12-17T07:19:15.069Z,45.63
2022-12-17T07:20:16.661Z,54.13
2022-12-17T07:21:18.155Z,49.53
2022-12-17T07:22:19.680Z,47.03
2022-12-17T07:23:22.521Z,40.80
2022-12-17T07:24:24.059Z,40.00
2022-12-17T07:25:25.567Z,41.85
2022-12-17T07:26:27.141Z,42.42
2022-12-17T07:27:28.650Z,42.60
2022-12-17T07:28:30.127Z,41.78
2022-12-17T07:29:31.645Z,41.20
2022-12-17T07:30:33.158Z,47.08
2022-12-17T07:31:34.718Z,41.45
2022-12-17T07:32:36.234Z,46.05
2022-12-17T07:33:37.979Z,39.78
2022-12-17T07:34:39.657Z,38.15
2022-12-17T07:35:41.173Z,41.92
2022-12-17T07:36:42.664Z,48.20
2022-12-17T07:37:44.158Z,44.97
2022-12-17T07:38:46.993Z,44.47
2022-12-17T07:39:48.524Z,35.00
2022-12-17T07:40:50.160Z,39.08
2022-12-17T07:41:51.666Z,42.08
2022-12-17T07:42:53.144Z,40.42
2022-12-17T07:43:54.696Z,38.97
2022-12-17T07:44:56.198Z,45.50
2022-12-17T07:45:57.766Z,43.40
2022-12-17T07:46:59.259Z,44.30
2022-12-17T07:48:00.765Z,43.55
2022-12-17T07:49:02.459Z,40.63
2022-12-17T07:50:05.158Z,48.95
2022-12-17T07:51:06.675Z,43.60
2022-12-17T07:52:08.188Z,46.67
2022-12-17T07:53:09.714Z,46.10
2022-12-17T07:54:13.038Z,42.85
2022-12-17T07:55:18.195Z,42.65
2022-12-17T07:56:20.226Z,40.25
2022-12-17T07:57:21.729Z,38.47
2022-12-17T07:58:24.351Z,37.80
2022-12-17T07:59:25.874Z,33.70
2022-12-17T08:00:27.410Z,29.75
2022-12-17T08:01:29.024Z,31.75
2022-12-17T08:02:31.441Z,29.52
2022-12-17T08:03:33.267Z,30.42
2022-12-17T08:04:34.942Z,34.33
2022-12-17T08:05:36.460Z,30.50
2022-12-17T08:06:51.623Z,32.33
2022-12-17T08:07:55.451Z,32.83
2022-12-17T08:08:56.969Z,34.85
2022-12-17T08:09:59.816Z,36.00
2022-12-17T08:11:01.323Z,34.95
2022-12-17T08:12:02.894Z,34.30
2022-12-17T08:13:08.379Z,43.58
2022-12-17T08:14:14.014Z,37.45
2022-12-17T08:15:15.972Z,36.53
2022-12-17T08:16:17.485Z,37.63
2022-12-17T08:17:19.046Z,36.42
2022-12-17T08:18:26.109Z,37.80
2022-12-17T08:19:28.351Z,37.22
2022-12-17T08:20:29.876Z,34.92
2022-12-17T08:21:31.355Z,35.60
2022-12-17T08:22:32.878Z,37.22
2022-12-17T08:23:34.760Z,36.35
2022-12-17T08:24:36.562Z,34.42
2022-12-17T08:25:39.880Z,36.17
2022-12-17T08:26:47.320Z,32.72
2022-12-17T08:27:55.648Z,34.90
2022-12-17T08:28:58.860Z,34.13
2022-12-17T08:30:00.356Z,30.55
2022-12-17T08:31:01.991Z,30.65
2022-12-17T08:32:03.538Z,34.17
2022-12-17T08:33:05.839Z,34.40
2022-12-17T08:34:08.144Z,32.83
2022-12-17T08:35:09.984Z,31.60
2022-12-17T08:36:11.861Z,29.92
2022-12-17T08:37:13.428Z,32.13
2022-12-17T08:38:14.957Z,30.73
2022-12-17T08:39:16.488Z,33.92
2022-12-17T08:40:18.036Z,31.13
2022-12-17T08:41:20.969Z,30.55
2022-12-17T08:42:22.537Z,29.52
2022-12-17T08:43:24.084Z,31.23
2022-12-17T08:44:25.563Z,31.08
2022-12-17T08:45:27.042Z,29.90
2022-12-17T08:46:28.637Z,28.10
2022-12-17T08:47:30.247Z,31.40
2022-12-17T08:48:31.810Z,30.75
2022-12-17T08:49:33.327Z,26.52
2022-12-17T08:50:34.876Z,29.33
2022-12-17T08:51:36.375Z,31.30
2022-12-17T08:52:37.943Z,27.95
2022-12-17T08:53:39.802Z,27.67
2022-12-17T08:54:41.594Z,27.95
2022-12-17T08:55:43.139Z,30.30
2022-12-17T08:56:46.082Z,27.17
2022-12-17T08:57:52.971Z,24.42
2022-12-17T08:58:59.144Z,26.98
2022-12-17T09:00:00.994Z,33.45
2022-12-17T09:01:02.585Z,32.03
2022-12-17T09:02:04.270Z,41.58
2022-12-17T09:03:06.019Z,41.10
2022-12-17T09:04:07.567Z,41.25
2022-12-17T09:05:09.192Z,47.83
2022-12-17T09:06:11.276Z,31.13
2022-12-17T09:07:12.810Z,28.77
2022-12-17T09:08:14.352Z,27.30
2022-12-17T09:09:16.177Z,26.17
2022-12-17T09:10:17.728Z,27.90
2022-12-17T09:11:19.298Z,28.35
2022-12-17T09:12:22.186Z,28.08
2022-12-17T09:13:23.707Z,29.10
2022-12-17T09:14:28.556Z,28.33
2022-12-17T09:15:30.041Z,29.73
2022-12-17T09:16:31.632Z,29.15
2022-12-17T09:17:33.190Z,25.60
2022-12-17T09:18:34.668Z,27.90
2022-12-17T09:19:36.181Z,30.55
2022-12-17T09:20:37.787Z,26.60
2022-12-17T09:21:39.361Z,29.20
2022-12-17T09:22:40.915Z,26.50
2022-12-17T09:23:42.410Z,26.10
2022-12-17T09:24:43.920Z,26.48
2022-12-17T09:25:57.974Z,26.88
2022-12-17T09:26:59.896Z,24.33
2022-12-17T09:28:03.585Z,26.85
2022-12-17T09:29:05.104Z,28.10
2022-12-17T09:30:07.508Z,25.67
2022-12-17T09:31:09.138Z,23.25
2022-12-17T09:32:10.762Z,24.60
2022-12-17T09:33:15.059Z,24.42
2022-12-17T09:34:16.792Z,25.88
2022-12-17T09:35:18.330Z,24.55
2022-12-17T09:36:19.883Z,24.25
2022-12-17T09:37:21.468Z,23.20
2022-12-17T09:38:23.108Z,28.42
2022-12-17T09:39:24.643Z,26.90
2022-12-17T09:40:26.203Z,24.83
2022-12-17T09:41:29.520Z,24.85
2022-12-17T09:42:38.520Z,24.65
2022-12-17T09:43:46.772Z,25.25
2022-12-17T09:44:53.281Z,26.98
2022-12-17T09:46:02.923Z,27.05
2022-12-17T09:47:17.548Z,24.77
2022-12-17T09:48:29.488Z,28.98
2022-12-17T09:49:34.033Z,31.10
2022-12-17T09:50:36.243Z,31.95
2022-12-17T09:51:38.191Z,32.63
2022-12-17T09:52:42.147Z,32.03
2022-12-17T09:53:53.637Z,35.55
2022-12-17T09:55:00.842Z,30.73
2022-12-17T09:56:04.882Z,31.67
2022-12-17T09:57:12.529Z,40.10
2022-12-17T09:58:20.406Z,44.28
2022-12-17T09:59:27.394Z,47.58
2022-12-17T10:00:29.360Z,42.90
2022-12-17T10:01:34.479Z,37.00
2022-12-17T10:02:38.300Z,36.42
2022-12-17T10:03:44.255Z,34.35
2022-12-17T10:04:47.100Z,39.97
2022-12-17T10:05:50.262Z,39.58
2022-12-17T10:06:51.851Z,41.63
2022-12-17T10:07:54.176Z,38.40
2022-12-17T10:08:59.448Z,41.70
2022-12-17T10:10:20.467Z,41.13
2022-12-17T10:11:24.522Z,43.92
2022-12-17T10:12:26.235Z,44.13
2022-12-17T10:13:27.768Z,41.30
2022-12-17T10:14:43.031Z,40.08
2022-12-17T10:15:44.623Z,34.15
2022-12-17T10:16:46.812Z,34.95
2022-12-17T10:17:49.572Z,42.63
2022-12-17T10:18:51.149Z,37.58
2022-12-17T10:19:54.968Z,42.72
2022-12-17T10:20:59.279Z,41.50
2022-12-17T10:22:11.969Z,37.63
2022-12-17T10:23:23.201Z,49.58
2022-12-17T10:24:24.769Z,45.80
2022-12-17T10:25:26.248Z,40.55
2022-12-17T10:26:29.585Z,36.72
2022-12-17T10:27:31.302Z,36.67
2022-12-17T10:28:32.830Z,39.90
2022-12-17T10:29:34.618Z,35.00
2022-12-17T10:30:53.001Z,36.15
2022-12-17T10:31:55.864Z,38.00
2022-12-17T10:32:57.464Z,39.67
2022-12-17T10:33:58.995Z,36.60
2022-12-17T10:35:06.491Z,34.17
2022-12-17T10:36:21.147Z,31.92
2022-12-17T10:37:23.041Z,32.67
2022-12-17T10:38:26.510Z,37.63
2022-12-17T10:39:28.120Z,33.70
2022-12-17T10:40:32.155Z,34.08
2022-12-17T10:41:35.207Z,34.70
2022-12-17T10:42:39.243Z,35.80
2022-12-17T10:43:41.823Z,36.78
2022-12-17T10:44:43.347Z,32.75
2022-12-17T10:45:54.343Z,33.67
2022-12-17T10:46:56.836Z,32.28
2022-12-17T10:47:58.388Z,30.40
2022-12-17T10:49:11.804Z,33.75
2022-12-17T10:50:16.400Z,36.08
2022-12-17T10:51:21.242Z,35.35
2022-12-17T10:52:28.441Z,35.47
2022-12-17T10:53:29.934Z,34.38
2022-12-17T10:54:33.498Z,37.30
2022-12-17T10:55:35.956Z,32.92
2022-12-17T10:56:37.594Z,32.00
2022-12-17T10:57:39.480Z,34.65
2022-12-17T10:58:45.196Z,35.83
2022-12-17T10:59:47.280Z,36.08
2022-12-17T11:00:50.627Z,32.95
2022-12-17T11:01:58.477Z,34.42
2022-12-17T11:03:00.238Z,35.65
2022-12-17T11:04:01.863Z,35.90
2022-12-17T11:05:04.099Z,36.03
2022-12-17T11:06:06.452Z,34.28
2022-12-17T11:07:10.594Z,37.28
2022-12-17T11:08:15.060Z,37.90
2022-12-17T11:09:29.927Z,39.67
2022-12-17T11:10:36.938Z,41.58
2022-12-17T11:11:43.682Z,41.70
2022-12-17T11:12:48.466Z,38.92
2022-12-17T11:13:52.125Z,36.97
2022-12-17T11:14:59.177Z,38.50
2022-12-17T11:16:02.545Z,39.22
2022-12-17T11:17:12.820Z,35.85
2022-12-17T11:18:17.903Z,41.20
2022-12-17T11:21:06.155Z,36.80
2022-12-17T11:22:22.321Z,39.40
2022-12-17T11:23:23.938Z,36.25
2022-12-17T11:24:34.797Z,37.85
2022-12-17T11:25:54.549Z,37.85
2022-12-17T11:26:58.640Z,39.45
2022-12-17T11:28:11.094Z,38.20
2022-12-17T11:29:14.017Z,35.05
2022-12-17T11:30:17.072Z,33.03
2022-12-17T11:31:34.267Z,34.45
2022-12-17T11:32:52.106Z,34.55
2022-12-17T11:34:01.145Z,37.88
2022-12-17T11:35:09.890Z,34.00
2022-12-17T11:36:18.392Z,35.25
2022-12-17T11:37:22.263Z,35.28
2022-12-17T11:38:33.697Z,35.33
2022-12-17T11:40:10.323Z,30.17
2022-12-17T11:41:18.258Z,31.80
2022-12-17T11:42:30.703Z,30.23
2022-12-17T11:43:43.352Z,30.73
2022-12-17T11:44:54.469Z,31.85
2022-12-17T11:46:07.354Z,33.38
2022-12-17T11:48:48.236Z,32.25
2022-12-17T11:49:56.017Z,31.77
2022-12-17T11:51:05.109Z,33.17
2022-12-17T11:52:12.067Z,30.08
2022-12-17T11:53:28.383Z,30.38
2022-12-17T11:54:38.458Z,29.73
2022-12-17T11:55:46.380Z,29.23
2022-12-17T11:56:52.438Z,34.67
2022-12-17T11:58:00.626Z,32.20
2022-12-17T11:59:12.119Z,31.45
2022-12-17T12:00:18.908Z,34.03
2022-12-17T12:01:27.553Z,33.03
2022-12-17T12:02:43.533Z,36.58
2022-12-17T12:03:54.931Z,31.23
2022-12-17T12:06:18.488Z,33.50
2022-12-17T12:07:26.176Z,31.35
2022-12-17T12:08:29.705Z,37.75
2022-12-17T12:09:40.385Z,31.80
2022-12-17T12:10:49.183Z,37.75
2022-12-17T12:12:00.846Z,34.85
2022-12-17T12:13:11.101Z,37.15
2022-12-17T12:14:25.023Z,36.05
2022-12-17T12:15:46.117Z,34.70
2022-12-17T12:16:59.849Z,41.85
2022-12-17T12:18:09.592Z,38.75
2022-12-17T12:19:21.058Z,36.45
2022-12-17T12:20:37.352Z,36.13
2022-12-17T12:21:53.785Z,36.08
2022-12-17T12:23:09.150Z,37.33
2022-12-17T12:24:24.863Z,39.38
2022-12-17T12:25:38.563Z,36.70
2022-12-17T12:26:48.547Z,37.95
2022-12-17T12:27:59.335Z,35.60
2022-12-17T12:29:11.723Z,36.55
2022-12-17T12:30:16.777Z,33.83
2022-12-17T12:31:27.193Z,38.75
2022-12-17T12:32:39.481Z,39.85
2022-12-17T12:33:47.609Z,38.35
2022-12-17T12:34:54.409Z,37.15
2022-12-17T12:36:01.921Z,37.80
2022-12-17T12:37:05.136Z,42.53
2022-12-17T12:38:15.998Z,38.10
2022-12-17T12:39:27.033Z,41.33
2022-12-17T12:40:36.365Z,39.17
2022-12-17T12:41:45.105Z,38.65
2022-12-17T12:42:53.969Z,37.53
2022-12-17T12:43:59.715Z,39.33
2022-12-17T12:45:05.772Z,34.05
2022-12-17T12:46:16.254Z,37.67
2022-12-17T12:47:25.302Z,36.85
2022-12-17T12:48:38.906Z,35.72
2022-12-17T12:49:50.326Z,38.58
2022-12-17T12:51:00.742Z,38.90
2022-12-17T12:52:02.758Z,36.43
2022-12-17T12:53:04.590Z,36.55
2022-12-17T12:54:22.923Z,35.67
2022-12-17T12:55:36.813Z,37.80
2022-12-17T12:56:38.373Z,35.75
2022-12-17T12:57:43.558Z,34.40
2022-12-17T12:58:45.083Z,40.33
2022-12-17T12:59:49.406Z,35.28
2022-12-17T13:00:55.285Z,33.63
2022-12-17T13:01:57.039Z,35.50
2022-12-17T13:03:07.759Z,39.10
2022-12-17T13:04:28.934Z,37.50
2022-12-17T13:05:39.149Z,42.70
2022-12-17T13:06:45.187Z,37.10
2022-12-17T13:07:46.695Z,38.63
2022-12-17T13:08:50.210Z,36.28
2022-12-17T13:09:54.406Z,38.03
2022-12-17T13:10:56.009Z,39.63
2022-12-17T13:12:17.628Z,40.60
2022-12-17T13:14:35.636Z,39.08
2022-12-17T13:15:43.899Z,35.38
2022-12-17T13:16:53.140Z,38.63
2022-12-17T13:18:00.208Z,38.88
2022-12-17T13:19:03.772Z,37.97
2022-12-17T13:20:22.484Z,38.13
2022-12-17T13:21:27.201Z,36.00
2022-12-17T13:22:31.310Z,38.88
2022-12-17T13:23:34.887Z,40.72
2022-12-17T13:24:36.443Z,42.70
2022-12-17T13:25:38.387Z,35.03
2022-12-17T13:26:44.703Z,42.03
2022-12-17T13:27:46.663Z,40.50
2022-12-17T13:29:00.989Z,36.08
2022-12-17T13:30:20.119Z,35.88
2022-12-17T13:31:25.316Z,34.38
2022-12-17T13:32:31.066Z,36.45
2022-12-17T13:33:43.461Z,34.72
2022-12-17T13:35:10.717Z,37.97
2022-12-17T13:36:19.639Z,41.65
2022-12-17T13:37:35.270Z,38.40
2022-12-17T13:38:47.914Z,37.58
2022-12-17T13:39:56.475Z,43.88
2022-12-17T13:41:10.220Z,41.67
2022-12-17T13:42:18.695Z,43.28
2022-12-17T13:43:23.224Z,39.60
2022-12-17T13:44:27.152Z,43.53
2022-12-17T13:45:32.686Z,43.72
2022-12-17T13:46:53.851Z,42.03
2022-12-17T13:47:57.113Z,48.55
2022-12-17T13:49:01.804Z,40.80
2022-12-17T13:50:33.754Z,45.38
2022-12-17T13:51:36.750Z,43.90
2022-12-17T13:52:39.891Z,45.70
2022-12-17T13:53:52.129Z,45.40